Time;durP1;ratioP1;P1;durP2;ratioP2;P2;SDS_P1;SDS_P2;PMS_P1;PMS_P2;Temp;Humidity;BMP_temperature;BMP_pressure;BME280_temperature;BME280_humidity;BME280_pressure;Samples;Min_cycle;Max_cycle;Signal;HPM_P1;HPM_P2
2024/04/18 00:00:40;;;;;;;2.33;2.03;;;7.20;99.90;;;;;;5488317;26;20443;-66
2024/04/18 00:03:06;;;;;;;2.33;2.23;;;7.20;99.90;;;;;;5488416;26;20237;-66
2024/04/18 00:05:34;;;;;;;2.37;2.17;;;7.00;99.90;;;;;;5488197;26;20447;-66
2024/04/18 00:08:00;;;;;;;5.17;2.13;;;7.00;99.90;;;;;;5488161;26;20600;-66
2024/04/18 00:10:28;;;;;;;2.30;2.10;;;7.00;99.90;;;;;;5488144;26;20446;-67
2024/04/18 00:12:53;;;;;;;2.07;1.87;;;7.00;99.90;;;;;;5488112;26;20237;-66
2024/04/18 00:15:21;;;;;;;2.13;2.03;;;6.80;99.90;;;;;;5488235;26;20459;-66
2024/04/18 00:17:50;;;;;;;2.30;2.03;;;6.80;99.90;;;;;;5488160;26;20252;-66
2024/04/18 00:20:18;;;;;;;2.00;1.73;;;6.80;99.90;;;;;;5488222;26;20447;-66
2024/04/18 00:22:43;;;;;;;2.00;1.90;;;6.70;99.90;;;;;;5487909;26;20443;-65
2024/04/18 00:25:12;;;;;;;2.70;2.03;;;6.70;99.90;;;;;;5487976;26;20446;-66
2024/04/18 00:27:37;;;;;;;2.37;2.17;;;6.70;99.90;;;;;;5489202;26;20685;-66
2024/04/18 00:30:06;;;;;;;1.90;1.80;;;6.70;99.90;;;;;;5491679;26;20450;-66
2024/04/18 00:32:31;;;;;;;3.03;2.40;;;6.80;99.90;;;;;;5491721;26;20577;-66
2024/04/18 00:35:02;;;;;;;2.50;2.27;;;6.80;99.90;;;;;;5491609;26;20222;-66
2024/04/18 00:37:28;;;;;;;2.13;2.03;;;6.70;99.90;;;;;;5491643;26;20222;-66
2024/04/18 00:39:56;;;;;;;3.97;2.73;;;6.80;99.90;;;;;;5491600;26;20872;-66
2024/04/18 00:42:21;;;;;;;2.87;2.03;;;6.80;99.90;;;;;;5491513;26;20673;-66
2024/04/18 00:44:50;;;;;;;2.83;2.63;;;6.90;99.90;;;;;;5491603;26;20475;-66
2024/04/18 00:47:16;;;;;;;2.25;2.15;;;6.90;99.90;;;;;;5491427;26;20218;-66
2024/04/18 00:49:44;;;;;;;2.27;2.00;;;6.80;99.90;;;;;;5491381;26;20373;-66
2024/04/18 00:52:18;;;;;;;3.22;3.03;;;6.60;99.90;;;;;;5491400;26;20447;-66
2024/04/18 00:54:47;;;;;;;2.40;2.20;;;6.40;99.90;;;;;;5491160;26;20221;-66
2024/04/18 00:57:13;;;;;;;2.10;2.00;;;6.50;99.90;;;;;;5491258;26;20458;-66
2024/04/18 00:59:41;;;;;;;5.18;2.10;;;6.50;99.90;;;;;;5491325;26;20561;-66
2024/04/18 01:02:07;;;;;;;3.10;2.80;;;6.40;99.90;;;;;;5491436;26;20218;-67
2024/04/18 01:04:35;;;;;;;2.07;1.97;;;6.30;99.90;;;;;;5491261;26;20506;-67
2024/04/18 01:07:00;;;;;;;3.03;2.83;;;6.40;99.90;;;;;;5491331;26;20249;-67
2024/04/18 01:09:31;;;;;;;2.50;2.30;;;6.40;99.90;;;;;;5491382;26;20462;-67
2024/04/18 01:11:57;;;;;;;2.50;2.30;;;6.30;99.90;;;;;;5491195;26;20221;-67
2024/04/18 01:14:25;;;;;;;2.60;2.40;;;6.10;99.90;;;;;;5491055;26;20251;-67
2024/04/18 01:16:50;;;;;;;2.72;2.53;;;6.10;99.90;;;;;;5491103;26;20206;-67
2024/04/18 01:19:21;;;;;;;2.83;2.63;;;6.10;99.90;;;;;;5491525;26;20240;-67
2024/04/18 01:21:47;;;;;;;2.60;2.40;;;6.00;99.90;;;;;;5491344;26;20542;-67
2024/04/18 01:24:15;;;;;;;2.50;2.30;;;6.10;99.90;;;;;;5491287;26;20210;-67
2024/04/18 01:26:43;;;;;;;3.13;2.83;;;6.00;99.90;;;;;;5490692;26;21018;-67
2024/04/18 01:29:11;;;;;;;4.00;2.80;;;6.10;99.90;;;;;;5490917;26;20560;-67
2024/04/18 01:31:37;;;;;;;2.83;2.60;;;6.10;99.90;;;;;;5490865;26;20214;-67
2024/04/18 01:34:05;;;;;;;2.97;2.77;;;6.00;99.90;;;;;;5490959;26;20248;-67
2024/04/18 01:36:31;;;;;;;2.33;2.15;;;6.10;99.90;;;;;;5490661;26;20542;-67
2024/04/18 01:38:59;;;;;;;2.17;1.93;;;6.00;99.90;;;;;;5490264;26;20245;-67
2024/04/18 01:41:25;;;;;;;3.08;2.88;;;6.00;99.90;;;;;;5490748;26;20244;-67
2024/04/18 01:43:56;;;;;;;3.10;2.80;;;6.00;99.90;;;;;;5490807;26;20226;-67
2024/04/18 01:46:21;;;;;;;3.63;2.90;;;6.00;99.90;;;;;;5490878;26;20214;-67
2024/04/18 01:48:49;;;;;;;3.10;2.90;;;6.00;99.90;;;;;;5490524;26;20248;-67
2024/04/18 01:51:15;;;;;;;3.10;2.20;;;6.00;99.90;;;;;;5490576;26;20218;-67
2024/04/18 01:53:43;;;;;;;3.80;2.70;;;6.00;99.90;;;;;;5491238;26;20210;-66
2024/04/18 01:56:09;;;;;;;2.75;2.55;;;5.90;99.90;;;;;;5490498;26;20238;-67
2024/04/18 01:58:37;;;;;;;2.70;2.07;;;5.80;99.90;;;;;;5490872;26;20252;-67
2024/04/18 02:01:05;;;;;;;2.90;2.50;;;5.90;99.90;;;;;;5490616;26;20245;-67
2024/04/18 02:03:33;;;;;;;3.70;2.70;;;5.90;99.90;;;;;;5490884;26;20256;-67
2024/04/18 02:05:58;;;;;;;2.75;2.55;;;5.80;99.90;;;;;;5490737;26;20495;-67
2024/04/18 02:08:26;;;;;;;2.97;2.70;;;5.80;99.90;;;;;;5490412;26;20700;-67
2024/04/18 02:10:52;;;;;;;2.60;2.40;;;5.80;99.90;;;;;;5490336;26;20218;-67
2024/04/18 02:13:20;;;;;;;3.17;2.80;;;5.70;99.90;;;;;;5490228;26;20217;-67
2024/04/18 02:15:46;;;;;;;2.35;2.25;;;5.70;99.90;;;;;;5490283;26;20210;-67
2024/04/18 02:18:16;;;;;;;6.07;3.07;;;5.80;99.90;;;;;;5490178;26;20589;-67
2024/04/18 02:20:42;;;;;;;2.40;2.30;;;5.70;99.90;;;;;;5490204;26;20534;-67
2024/04/18 02:23:10;;;;;;;4.23;3.20;;;5.70;99.90;;;;;;5490123;26;20240;-67
2024/04/18 02:25:37;;;;;;;2.97;2.78;;;5.60;99.90;;;;;;5490081;26;20248;-67
2024/04/18 02:28:06;;;;;;;4.00;3.67;;;5.60;99.90;;;;;;5489966;26;20221;-67
2024/04/18 02:30:31;;;;;;;2.60;2.40;;;5.70;99.90;;;;;;5489954;26;20447;-67
2024/04/18 02:32:59;;;;;;;3.47;2.87;;;5.70;99.90;;;;;;5489997;26;20213;-67
2024/04/18 02:35:27;;;;;;;2.90;2.70;;;5.70;99.90;;;;;;5490000;26;20570;-67
2024/04/18 02:37:55;;;;;;;3.30;2.60;;;5.60;99.90;;;;;;5490229;26;20214;-67
2024/04/18 02:40:21;;;;;;;2.72;2.55;;;5.60;99.90;;;;;;5490155;26;20218;-67
2024/04/18 02:42:49;;;;;;;3.17;2.97;;;5.40;99.90;;;;;;5490051;26;20247;-67
2024/04/18 02:45:15;;;;;;;2.90;2.70;;;5.40;99.90;;;;;;5489942;26;20214;-67
2024/04/18 02:47:43;;;;;;;4.37;3.20;;;5.40;99.90;;;;;;5489660;26;20715;-67
2024/04/18 02:50:08;;;;;;;4.22;3.20;;;5.50;99.90;;;;;;5488334;26;20700;-67
2024/04/18 02:52:39;;;;;;;3.37;2.83;;;5.50;99.90;;;;;;5489624;26;20217;-67
2024/04/18 02:55:05;;;;;;;3.97;3.60;;;5.30;99.90;;;;;;5489510;26;20263;-67
2024/04/18 02:57:33;;;;;;;3.40;2.73;;;5.20;99.90;;;;;;5489639;26;20218;-67
2024/04/18 03:00:00;;;;;;;4.03;3.38;;;5.30;99.90;;;;;;5489537;26;20476;-67
2024/04/18 03:02:28;;;;;;;5.10;3.53;;;5.20;99.90;;;;;;5489532;26;20594;-67
2024/04/18 03:04:54;;;;;;;3.50;3.20;;;5.20;99.90;;;;;;5489417;26;20218;-67
2024/04/18 03:07:22;;;;;;;3.63;3.17;;;5.20;99.90;;;;;;5489361;26;20244;-67
2024/04/18 03:09:52;;;;;;;3.40;3.20;;;5.20;99.90;;;;;;5489399;26;20236;-67
2024/04/18 03:12:20;;;;;;;3.42;3.13;;;5.20;99.90;;;;;;5489307;26;20210;-67
2024/04/18 03:14:48;;;;;;;3.53;3.23;;;5.20;99.90;;;;;;5489203;26;20252;-66
2024/04/18 03:17:16;;;;;;;3.55;3.17;;;5.10;99.90;;;;;;5489107;26;20506;-67
2024/04/18 03:19:42;;;;;;;3.80;3.35;;;4.90;99.90;;;;;;5489131;26;20232;-67
2024/04/18 03:22:10;;;;;;;3.47;3.07;;;4.90;99.90;;;;;;5489172;26;20701;-67
2024/04/18 03:24:36;;;;;;;3.70;3.28;;;5.00;99.90;;;;;;5489016;26;20249;-67
2024/04/18 03:27:07;;;;;;;6.90;4.00;;;4.80;99.90;;;;;;5489057;26;20226;-67
2024/04/18 03:29:32;;;;;;;3.92;3.35;;;4.80;99.90;;;;;;5489134;26;20275;-67
2024/04/18 03:32:01;;;;;;;4.00;3.40;;;4.80;99.90;;;;;;5488883;26;20218;-67
2024/04/18 03:34:26;;;;;;;4.70;4.30;;;4.80;99.90;;;;;;5489166;26;20954;-67
2024/04/18 03:36:54;;;;;;;5.30;4.20;;;5.00;99.90;;;;;;5488886;26;20512;-66
2024/04/18 03:39:23;;;;;;;4.90;3.72;;;5.00;99.90;;;;;;5488710;26;20205;-67
2024/04/18 03:41:52;;;;;;;4.00;3.67;;;4.90;99.90;;;;;;5488841;26;20214;-67
2024/04/18 03:44:20;;;;;;;3.60;3.30;;;4.90;99.90;;;;;;5488714;26;20257;-67
2024/04/18 03:46:48;;;;;;;5.03;3.35;;;4.90;99.90;;;;;;5488822;26;20248;-67
2024/04/18 03:49:13;;;;;;;3.28;2.92;;;4.90;99.90;;;;;;5488514;26;20210;-67
2024/04/18 03:51:42;;;;;;;4.40;3.70;;;5.00;99.90;;;;;;5488565;26;20213;-67
2024/04/18 03:54:07;;;;;;;3.72;3.40;;;5.00;99.90;;;;;;5488316;26;20214;-67
2024/04/18 03:56:36;;;;;;;9.30;3.73;;;5.00;99.90;;;;;;5488546;26;20210;-67
2024/04/18 03:59:01;;;;;;;4.93;3.17;;;5.00;99.90;;;;;;5488379;26;20252;-67
2024/04/18 04:01:32;;;;;;;6.13;3.83;;;4.80;99.90;;;;;;5489569;26;20210;-67
2024/04/18 04:03:58;;;;;;;6.93;3.40;;;4.80;99.90;;;;;;5492187;26;20244;-67
2024/04/18 04:06:26;;;;;;;4.10;3.53;;;4.60;99.90;;;;;;5492091;26;20714;-66
2024/04/18 04:08:51;;;;;;;3.72;3.15;;;4.70;99.90;;;;;;5491984;26;20253;-67
2024/04/18 04:11:20;;;;;;;3.20;2.90;;;4.60;99.90;;;;;;5492111;26;20226;-67
2024/04/18 04:13:46;;;;;;;5.10;3.50;;;4.70;99.90;;;;;;5491950;26;20210;-67
2024/04/18 04:16:14;;;;;;;3.30;3.00;;;4.70;99.90;;;;;;5491854;26;20446;-67
2024/04/18 04:18:43;;;;;;;8.25;4.10;;;4.70;99.90;;;;;;5491952;26;20218;-66
2024/04/18 04:21:11;;;;;;;3.53;3.22;;;4.80;99.90;;;;;;5492024;26;20214;-67
2024/04/18 04:23:36;;;;;;;3.00;2.70;;;4.80;99.90;;;;;;5491976;26;20244;-67
2024/04/18 04:26:05;;;;;;;4.73;3.03;;;4.90;99.90;;;;;;5491745;26;20618;-67
2024/04/18 04:28:30;;;;;;;3.33;3.10;;;4.80;99.90;;;;;;5491703;26;20539;-67
2024/04/18 04:30:58;;;;;;;6.33;3.20;;;4.70;99.90;;;;;;5491525;26;20259;-67
2024/04/18 04:33:27;;;;;;;4.28;3.42;;;4.80;99.90;;;;;;5491604;26;20218;-67
2024/04/18 04:35:58;;;;;;;3.45;3.25;;;4.80;99.90;;;;;;5491659;26;20257;-67
2024/04/18 04:38:23;;;;;;;6.05;4.10;;;4.90;99.90;;;;;;5491529;26;20248;-67
2024/04/18 04:40:51;;;;;;;5.73;3.80;;;4.90;99.90;;;;;;5491448;26;20222;-67
2024/04/18 04:43:17;;;;;;;3.60;3.40;;;4.60;99.90;;;;;;5491250;26;20218;-67
2024/04/18 04:45:45;;;;;;;5.33;3.73;;;4.70;99.90;;;;;;5491329;26;20541;-67
2024/04/18 04:48:11;;;;;;;5.88;3.65;;;4.80;99.90;;;;;;5490988;26;20236;-67
2024/04/18 04:50:40;;;;;;;3.57;3.27;;;4.70;99.90;;;;;;5491496;26;20618;-67
2024/04/18 04:53:09;;;;;;;6.00;4.57;;;4.40;99.90;;;;;;5491182;26;20206;-67
2024/04/18 04:55:37;;;;;;;3.92;3.60;;;4.40;99.90;;;;;;5490871;26;20226;-67
2024/04/18 04:58:02;;;;;;;5.30;3.95;;;4.30;99.90;;;;;;5490959;26;20210;-67
2024/04/18 05:00:31;;;;;;;4.63;4.23;;;4.50;99.90;;;;;;5490720;26;20244;-67
2024/04/18 05:02:56;;;;;;;5.18;4.63;;;4.50;99.90;;;;;;5490746;26;20447;-67
2024/04/18 05:05:24;;;;;;;5.10;4.03;;;4.70;99.90;;;;;;5491160;26;20214;-67
2024/04/18 05:07:50;;;;;;;7.90;6.43;;;4.80;99.90;;;;;;5490643;26;20253;-67
2024/04/18 05:10:21;;;;;;;5.13;4.73;;;4.80;99.90;;;;;;5490576;26;20570;-67
2024/04/18 05:12:47;;;;;;;7.18;3.80;;;4.80;99.90;;;;;;5490072;26;20210;-67
2024/04/18 05:15:15;;;;;;;7.38;4.00;;;4.90;99.90;;;;;;5490951;26;20361;-66
2024/04/18 05:17:44;;;;;;;4.85;3.72;;;5.10;99.90;;;;;;5490969;26;20256;-66
2024/04/18 05:20:10;;;;;;;7.25;4.10;;;5.20;99.90;;;;;;5490973;26;20218;-67
2024/04/18 05:22:38;;;;;;;3.73;3.43;;;5.30;99.90;;;;;;5490920;26;20240;-67
2024/04/18 05:25:04;;;;;;;4.32;3.88;;;5.40;99.90;;;;;;5490832;26;20455;-67
2024/04/18 05:27:42;;;;;;;3.33;3.13;;;5.50;99.90;;;;;;5490672;26;20279;-67
2024/04/18 05:32:55;;;;;;;3.65;3.33;;;5.70;99.90;;;;;;5493425;26;20283;-67
2024/04/18 05:35:23;;;;;;;5.22;4.07;;;5.90;99.90;;;;;;5490741;26;20225;-67
2024/04/18 05:37:51;;;;;;;5.43;3.97;;;6.20;99.90;;;;;;5490604;26;20218;-66
2024/04/18 05:40:20;;;;;;;6.35;4.90;;;6.40;99.90;;;;;;5490697;26;20218;-66
2024/04/18 05:42:50;;;;;;;7.93;4.07;;;6.60;99.90;;;;;;5490748;26;20214;-67
2024/04/18 05:45:18;;;;;;;5.40;4.50;;;6.80;99.90;;;;;;5490342;26;20218;-66
2024/04/18 05:47:46;;;;;;;4.88;4.35;;;7.00;99.90;;;;;;5490346;26;20222;-66
2024/04/18 05:50:15;;;;;;;6.55;4.28;;;7.00;99.90;;;;;;5490438;26;20214;-67
2024/04/18 05:52:43;;;;;;;6.03;4.50;;;7.30;99.90;;;;;;5490290;26;20253;-67
2024/04/18 05:55:08;;;;;;;9.47;5.63;;;7.40;99.90;;;;;;5490262;26;20475;-66
2024/04/18 05:57:36;;;;;;;9.33;6.10;;;7.50;99.90;;;;;;5490524;26;20455;-67
2024/04/18 06:00:06;;;;;;;6.30;5.33;;;7.70;99.90;;;;;;5490276;26;20253;-67
2024/04/18 06:02:34;;;;;;;7.93;5.60;;;7.90;99.90;;;;;;5490311;26;20447;-67
2024/04/18 06:05:02;;;;;;;6.70;6.00;;;8.10;99.90;;;;;;5490097;26;20222;-66
2024/04/18 06:07:30;;;;;;;6.60;5.90;;;8.30;99.90;;;;;;5489966;26;21040;-67
2024/04/18 06:09:59;;;;;;;8.60;5.80;;;8.40;99.90;;;;;;5490128;26;21188;-67
2024/04/18 06:12:27;;;;;;;10.13;6.53;;;8.60;99.90;;;;;;5490168;26;20563;-67
2024/04/18 06:14:56;;;;;;;9.27;6.07;;;8.70;99.90;;;;;;5490264;26;20435;-67
2024/04/18 06:17:26;;;;;;;4.67;4.27;;;8.80;99.90;;;;;;5490159;26;20455;-67
2024/04/18 06:19:54;;;;;;;5.20;4.70;;;8.90;99.90;;;;;;5490150;26;20483;-67
2024/04/18 06:22:23;;;;;;;5.30;4.77;;;9.10;99.90;;;;;;5490144;26;20783;-67
2024/04/18 06:24:52;;;;;;;4.33;3.90;;;9.10;99.90;;;;;;5489951;26;20450;-67
2024/04/18 06:27:21;;;;;;;4.13;3.77;;;9.10;99.90;;;;;;5489927;26;20443;-67
2024/04/18 06:29:51;;;;;;;3.73;3.43;;;9.00;99.90;;;;;;5489874;26;20439;-67
2024/04/18 06:32:19;;;;;;;4.90;4.20;;;9.00;99.90;;;;;;5489857;26;20977;-67
2024/04/18 06:34:50;;;;;;;3.70;3.20;;;9.00;99.90;;;;;;5489832;26;20466;-67
2024/04/18 06:37:18;;;;;;;4.00;3.57;;;9.00;99.90;;;;;;5489783;26;20450;-67
2024/04/18 06:39:46;;;;;;;3.70;3.40;;;9.10;99.90;;;;;;5489699;26;20992;-67
2024/04/18 06:42:14;;;;;;;5.97;4.30;;;9.30;99.90;;;;;;5489745;26;20495;-67
2024/04/18 06:44:43;;;;;;;5.20;4.30;;;9.40;99.90;;;;;;5489765;26;20439;-67
2024/04/18 06:47:11;;;;;;;5.10;4.27;;;9.40;99.90;;;;;;5489849;26;20951;-67
2024/04/18 06:49:39;;;;;;;4.47;4.03;;;9.10;99.90;;;;;;5489764;26;20487;-67
2024/04/18 06:52:10;;;;;;;4.60;4.10;;;9.20;99.90;;;;;;5489535;26;20970;-67
2024/04/18 06:54:38;;;;;;;5.60;4.90;;;9.20;99.90;;;;;;5488739;26;20462;-67
2024/04/18 06:57:07;;;;;;;5.23;3.10;;;9.30;99.90;;;;;;5489290;26;20463;-67
2024/04/18 06:59:35;;;;;;;4.90;3.63;;;9.50;99.90;;;;;;5489562;26;20466;-67
2024/04/18 07:02:03;;;;;;;5.97;3.23;;;9.20;99.90;;;;;;5487114;26;20455;-67
2024/04/18 07:04:31;;;;;;;3.47;3.10;;;9.30;99.90;;;;;;5488213;26;20459;-67
2024/04/18 07:07:00;;;;;;;3.73;3.43;;;9.40;99.90;;;;;;5488155;26;20447;-67
2024/04/18 07:09:30;;;;;;;3.97;2.80;;;9.40;99.90;;;;;;5486173;26;20515;-67
2024/04/18 07:12:00;;;;;;;5.07;3.30;;;9.30;99.90;;;;;;5485418;26;20792;-67
2024/04/18 07:14:28;;;;;;;3.10;2.90;;;9.20;99.90;;;;;;5485344;26;20463;-68
2024/04/18 07:16:56;;;;;;;3.43;3.13;;;9.30;99.90;;;;;;5485091;26;20507;-68
2024/04/18 07:19:24;;;;;;;4.30;3.90;;;9.50;99.90;;;;;;5487786;26;20992;-62
2024/04/18 07:21:53;;;;;;;3.93;2.60;;;9.80;99.90;;;;;;5487849;26;20515;-70
2024/04/18 07:24:23;;;;;;;3.00;2.40;;;10.00;99.90;;;;;;5487882;26;20466;-68
2024/04/18 07:26:54;;;;;;;4.23;2.87;;;9.90;99.90;;;;;;5486591;26;20514;-67
2024/04/18 07:29:22;;;;;;;2.50;2.30;;;9.80;99.90;;;;;;5486354;26;20466;-63
2024/04/18 07:31:50;;;;;;;2.50;1.93;;;9.80;99.90;;;;;;5485932;26;20812;-71
2024/04/18 07:34:19;;;;;;;2.70;2.10;;;9.90;99.90;;;;;;5485025;26;20541;-69
2024/04/18 07:36:45;;;;;;;2.47;2.10;;;10.00;99.90;;;;;;5489102;26;20526;-67
2024/04/18 07:39:13;;;;;;;1.60;1.50;;;10.10;99.90;;;;;;5490789;26;20459;-67
2024/04/18 07:41:42;;;;;;;2.10;1.27;;;10.00;99.90;;;;;;5490908;26;20454;-69
2024/04/18 07:44:12;;;;;;;1.33;1.23;;;10.20;99.90;;;;;;5491106;26;20519;-65
2024/04/18 07:46:40;;;;;;;1.27;1.17;;;10.30;99.90;;;;;;5489754;26;20510;-69
2024/04/18 07:49:10;;;;;;;2.13;1.30;;;10.10;99.90;;;;;;5488842;26;20509;-67
2024/04/18 07:51:38;;;;;;;2.07;1.10;;;10.30;99.90;;;;;;5490759;26;20462;-63
2024/04/18 07:54:07;;;;;;;1.50;1.30;;;10.10;99.90;;;;;;5490904;26;20510;-66
2024/04/18 07:56:35;;;;;;;1.23;1.13;;;10.10;99.90;;;;;;5490315;26;20466;-62
2024/04/18 07:59:03;;;;;;;1.30;1.20;;;10.40;99.90;;;;;;5491009;26;20519;-67
2024/04/18 08:01:35;;;;;;;2.57;1.60;;;10.30;99.90;;;;;;5491252;26;20499;-62
2024/04/18 08:04:03;;;;;;;1.30;1.20;;;10.00;99.90;;;;;;5491921;26;20559;-64
2024/04/18 08:06:31;;;;;;;2.10;1.47;;;10.00;99.90;;;;;;5491557;26;20840;-69
2024/04/18 08:08:57;;;;;;;1.20;1.10;;;10.10;99.90;;;;;;5491362;26;20500;-64
2024/04/18 08:11:25;;;;;;;1.63;1.10;;;10.00;99.90;;;;;;5491589;26;20451;-63
2024/04/18 08:13:53;;;;;;;1.80;1.57;;;9.80;99.90;;;;;;5492180;26;20210;-64
2024/04/18 08:16:21;;;;;;;1.30;1.20;;;9.80;99.90;;;;;;5491859;26;20439;-63
2024/04/18 08:18:52;;;;;;;1.40;1.07;;;10.00;99.90;;;;;;5491331;26;20483;-68
2024/04/18 08:21:20;;;;;;;1.00;0.87;;;10.00;99.90;;;;;;5491662;26;20447;-70
2024/04/18 08:23:51;;;;;;;1.33;1.10;;;10.10;99.90;;;;;;5491647;26;20966;-70
2024/04/18 08:26:19;;;;;;;1.60;1.50;;;10.10;99.90;;;;;;5491657;26;20593;-67
2024/04/18 08:28:48;;;;;;;1.20;1.10;;;10.20;99.90;;;;;;5491578;26;20495;-68
2024/04/18 08:31:16;;;;;;;1.30;1.20;;;10.20;99.90;;;;;;5491519;26;20490;-65
2024/04/18 08:33:46;;;;;;;1.53;0.90;;;10.30;99.90;;;;;;5491535;26;20506;-63
2024/04/18 08:36:17;;;;;;;1.13;1.03;;;10.40;99.90;;;;;;5491517;26;20778;-62
2024/04/18 08:38:46;;;;;;;1.00;0.90;;;10.70;99.90;;;;;;5491497;26;20454;-63
2024/04/18 08:41:16;;;;;;;1.10;1.00;;;10.60;99.90;;;;;;5491330;26;20488;-67
2024/04/18 08:43:44;;;;;;;1.00;0.90;;;10.60;99.90;;;;;;5491649;26;20539;-67
2024/04/18 08:46:13;;;;;;;1.20;1.03;;;10.60;99.90;;;;;;5490976;26;20490;-69
2024/04/18 08:48:42;;;;;;;1.37;0.93;;;10.80;99.90;;;;;;5489773;26;20487;-68
2024/04/18 08:51:11;;;;;;;1.30;0.90;;;10.70;99.90;;;;;;5491213;26;20510;-69
2024/04/18 08:53:42;;;;;;;0.97;0.90;;;10.90;99.90;;;;;;5491158;26;20478;-68
2024/04/18 08:56:12;;;;;;;1.05;0.95;;;10.90;99.90;;;;;;5488919;26;20419;-64
2024/04/18 08:58:40;;;;;;;1.52;1.10;;;10.90;99.90;;;;;;5489384;26;20355;-63
2024/04/18 09:01:09;;;;;;;1.00;0.90;;;10.80;99.90;;;;;;5491359;26;20218;-66
2024/04/18 09:03:37;;;;;;;1.20;0.97;;;10.90;99.90;;;;;;5490923;26;20962;-65
2024/04/18 09:06:06;;;;;;;0.97;0.87;;;11.20;99.90;;;;;;5491114;26;20832;-64
2024/04/18 09:08:35;;;;;;;1.40;1.10;;;11.40;99.90;;;;;;5490966;26;20489;-66
2024/04/18 09:11:06;;;;;;;1.60;0.83;;;11.50;99.90;;;;;;5491089;26;20499;-68
2024/04/18 09:13:34;;;;;;;1.10;0.80;;;11.70;99.90;;;;;;5491098;26;20451;-69
2024/04/18 09:16:02;;;;;;;4.00;1.30;;;11.60;99.90;;;;;;5490875;26;20477;-70
2024/04/18 09:18:35;;;;;;;2.40;0.90;;;11.70;99.90;;;;;;5489253;26;20845;-69
2024/04/18 09:21:04;;;;;;;1.70;1.00;;;12.00;99.90;;;;;;5490870;26;20710;-68
2024/04/18 09:23:33;;;;;;;2.73;1.00;;;12.10;99.60;;;;;;5490857;26;20445;-68
2024/04/18 09:26:03;;;;;;;1.50;1.07;;;11.70;95.20;;;;;;5490782;26;20499;-69
2024/04/18 09:28:35;;;;;;;0.97;0.80;;;11.70;97.00;;;;;;5490509;26;20568;-68
2024/04/18 09:31:05;;;;;;;0.80;0.70;;;11.50;95.20;;;;;;5490455;26;20495;-68
2024/04/18 09:33:34;;;;;;;1.10;1.00;;;11.60;95.60;;;;;;5490288;26;20443;-68
2024/04/18 09:36:03;;;;;;;0.80;0.70;;;11.40;96.70;;;;;;5490270;26;20841;-66
2024/04/18 09:38:33;;;;;;;0.80;0.77;;;11.40;96.10;;;;;;5490457;26;20440;-68
2024/04/18 09:41:04;;;;;;;1.13;1.03;;;11.40;96.10;;;;;;5490276;26;20495;-63
2024/04/18 09:43:43;;;;;;;1.60;0.93;;;11.50;95.50;;;;;;5490446;26;20771;-67
2024/04/18 09:46:12;;;;;;;1.60;0.90;;;11.50;95.80;;;;;;5490344;26;20909;-71
2024/04/18 09:48:41;;;;;;;0.70;0.60;;;11.40;95.90;;;;;;5490455;26;20503;-64
2024/04/18 09:51:11;;;;;;;0.80;0.77;;;11.40;95.20;;;;;;5490029;26;20954;-63
2024/04/18 09:53:40;;;;;;;1.20;0.80;;;11.30;95.70;;;;;;5490575;26;20994;-68
2024/04/18 09:56:09;;;;;;;1.97;0.90;;;11.00;93.30;;;;;;5489935;26;20463;-68
2024/04/18 09:58:41;;;;;;;1.43;1.20;;;10.90;93.80;;;;;;5489859;26;20439;-68
2024/04/18 10:01:11;;;;;;;0.80;0.80;;;11.00;93.80;;;;;;5490110;26;20440;-73
2024/04/18 10:03:42;;;;;;;1.00;0.80;;;11.10;93.80;;;;;;5489994;26;20483;-67
2024/04/18 10:06:12;;;;;;;0.90;0.90;;;11.30;95.70;;;;;;5489548;26;20454;-65
2024/04/18 10:08:43;;;;;;;1.23;0.90;;;11.40;95.40;;;;;;5489920;26;20443;-66
2024/04/18 10:11:13;;;;;;;1.27;0.90;;;11.40;96.70;;;;;;5489985;26;20495;-68
2024/04/18 10:13:41;;;;;;;1.10;1.00;;;11.40;96.90;;;;;;5489921;26;20503;-62
2024/04/18 10:16:12;;;;;;;1.17;0.97;;;11.30;96.70;;;;;;5489774;26;20499;-63
2024/04/18 10:18:40;;;;;;;1.10;1.00;;;11.50;97.50;;;;;;5489651;26;21019;-63
2024/04/18 10:21:10;;;;;;;0.70;0.70;;;11.60;97.20;;;;;;5489732;26;21037;-66
2024/04/18 10:23:36;;;;;;;0.90;0.80;;;11.80;98.10;;;;;;5489663;26;20443;-65
2024/04/18 10:26:04;;;;;;;1.10;0.90;;;11.90;96.90;;;;;;5489317;26;20371;-66
2024/04/18 10:28:35;;;;;;;1.87;1.00;;;11.90;94.80;;;;;;5489831;26;20229;-64
2024/04/18 10:31:07;;;;;;;1.98;0.90;;;11.90;94.10;;;;;;5488011;26;20351;-68
2024/04/18 10:33:36;;;;;;;0.87;0.70;;;11.80;93.00;;;;;;5489785;26;20248;-69
2024/04/18 10:36:05;;;;;;;1.10;0.80;;;11.90;94.40;;;;;;5489558;26;20447;-72
2024/04/18 10:38:33;;;;;;;1.20;0.90;;;12.00;94.70;;;;;;5489623;26;20491;-68
2024/04/18 10:41:02;;;;;;;1.40;0.80;;;12.00;95.50;;;;;;5489263;26;20502;-66
2024/04/18 10:43:31;;;;;;;1.50;0.90;;;12.10;94.30;;;;;;5489360;26;20485;-68
2024/04/18 10:46:00;;;;;;;1.17;0.90;;;12.00;94.50;;;;;;5489274;26;20462;-70
2024/04/18 10:48:31;;;;;;;1.03;0.93;;;12.00;93.30;;;;;;5489220;26;20559;-67
2024/04/18 10:50:59;;;;;;;1.20;0.70;;;11.90;94.40;;;;;;5489356;26;20439;-64
2024/04/18 10:53:27;;;;;;;2.63;1.00;;;12.00;95.00;;;;;;5489217;26;20491;-70
2024/04/18 10:55:56;;;;;;;1.00;0.90;;;12.10;95.20;;;;;;5489259;26;20467;-66
2024/04/18 10:58:24;;;;;;;1.30;1.00;;;12.10;95.50;;;;;;5489270;26;20449;-67
2024/04/18 11:00:58;;;;;;;1.40;1.00;;;12.20;95.40;;;;;;5489193;26;20487;-66
2024/04/18 11:03:27;;;;;;;1.17;0.90;;;12.40;95.40;;;;;;5488999;26;20443;-66
2024/04/18 11:05:58;;;;;;;2.17;1.20;;;12.30;94.90;;;;;;5489139;26;20499;-65
2024/04/18 11:08:27;;;;;;;4.47;0.97;;;12.20;94.40;;;;;;5489138;26;20484;-70
2024/04/18 11:10:56;;;;;;;1.60;0.93;;;12.10;94.60;;;;;;5488247;26;20451;-63
2024/04/18 11:13:24;;;;;;;0.93;0.83;;;12.10;94.10;;;;;;5489186;26;20455;-69
2024/04/18 11:15:52;;;;;;;3.27;1.10;;;12.10;93.10;;;;;;5488827;26;20454;-69
2024/04/18 11:18:21;;;;;;;1.10;1.00;;;12.10;93.40;;;;;;5488829;26;20500;-63
2024/04/18 11:20:49;;;;;;;1.93;1.50;;;12.10;92.80;;;;;;5488889;26;20550;-68
2024/04/18 11:23:25;;;;;;;1.07;0.70;;;12.20;93.00;;;;;;5488770;26;20511;-70
2024/04/18 11:25:54;;;;;;;0.97;0.80;;;12.40;93.60;;;;;;5488823;26;20447;-67
2024/04/18 11:28:22;;;;;;;1.27;1.10;;;12.30;91.90;;;;;;5488778;26;20455;-65
2024/04/18 11:30:51;;;;;;;0.70;0.70;;;12.30;91.10;;;;;;5488515;26;21056;-71
2024/04/18 11:33:22;;;;;;;1.27;0.80;;;12.00;92.80;;;;;;5488785;26;20447;-69
2024/04/18 11:35:50;;;;;;;1.37;1.00;;;12.00;92.30;;;;;;5488603;26;20502;-67
2024/04/18 11:38:21;;;;;;;1.20;0.70;;;12.20;91.30;;;;;;5488136;26;20437;-67
2024/04/18 11:40:49;;;;;;;0.87;0.87;;;12.30;92.40;;;;;;5488428;26;20484;-64
2024/04/18 11:43:17;;;;;;;2.10;1.37;;;12.50;91.80;;;;;;5488373;26;20483;-64
2024/04/18 11:45:45;;;;;;;1.00;0.80;;;12.50;90.50;;;;;;5488412;26;20556;-63
2024/04/18 11:48:13;;;;;;;3.27;0.90;;;12.20;90.30;;;;;;5488565;26;20901;-64
2024/04/18 11:50:42;;;;;;;1.40;0.80;;;12.20;92.20;;;;;;5488244;26;20489;-63
2024/04/18 11:53:10;;;;;;;1.47;0.90;;;12.20;92.10;;;;;;5488217;26;20735;-63
2024/04/18 11:55:41;;;;;;;1.63;0.90;;;12.30;92.90;;;;;;5488288;26;20498;-63
2024/04/18 11:58:07;;;;;;;2.77;0.97;;;12.30;92.10;;;;;;5488195;26;20556;-68
2024/04/18 12:00:36;;;;;;;0.80;0.80;;;12.30;92.90;;;;;;5488171;26;20955;-68
2024/04/18 12:03:05;;;;;;;1.00;0.90;;;12.40;91.90;;;;;;5487977;26;20222;-69
2024/04/18 12:05:33;;;;;;;0.90;0.90;;;12.40;93.40;;;;;;5487891;26;20446;-70
2024/04/18 12:08:04;;;;;;;1.40;1.30;;;12.40;92.90;;;;;;5487544;26;20497;-71
2024/04/18 12:10:32;;;;;;;1.13;0.80;;;12.40;92.90;;;;;;5487791;26;20499;-69
2024/04/18 12:13:03;;;;;;;1.53;1.10;;;12.40;93.40;;;;;;5487487;26;20500;-71
2024/04/18 12:15:33;;;;;;;1.47;1.33;;;12.70;93.70;;;;;;5487782;26;20498;-68
2024/04/18 12:18:02;;;;;;;1.27;0.97;;;12.90;94.60;;;;;;5487604;26;20446;-70
2024/04/18 12:20:30;;;;;;;1.83;0.97;;;13.30;95.60;;;;;;5487702;26;20449;-72
2024/04/18 12:22:58;;;;;;;1.17;0.93;;;13.60;94.90;;;;;;5489806;26;20451;-62
2024/04/18 12:25:26;;;;;;;1.23;0.90;;;13.80;94.80;;;;;;5491449;26;20447;-63
2024/04/18 12:27:54;;;;;;;2.17;1.77;;;13.80;93.90;;;;;;5490803;26;20994;-63
2024/04/18 12:30:22;;;;;;;1.33;1.00;;;13.80;94.30;;;;;;5486111;26;20934;-63
2024/04/18 12:32:50;;;;;;;1.33;0.87;;;13.90;91.60;;;;;;5490855;26;20511;-63
2024/04/18 12:35:19;;;;;;;1.30;0.87;;;14.10;90.90;;;;;;5490809;26;20516;-63
2024/04/18 12:37:47;;;;;;;2.20;0.80;;;14.40;90.70;;;;;;5490625;26;20807;-63
2024/04/18 12:40:15;;;;;;;1.37;1.13;;;14.50;88.10;;;;;;5490742;26;20528;-64
2024/04/18 12:42:43;;;;;;;0.93;0.80;;;14.60;90.60;;;;;;5486266;26;20455;-63
2024/04/18 12:45:11;;;;;;;2.83;1.03;;;14.80;90.70;;;;;;5488448;26;21001;-63
2024/04/18 12:47:42;;;;;;;1.00;0.90;;;14.90;88.50;;;;;;5486950;26;20473;-64
2024/04/18 12:50:07;;;;;;;0.93;0.80;;;15.20;88.20;;;;;;5487044;26;20933;-64
2024/04/18 12:52:36;;;;;;;1.10;1.00;;;15.20;86.40;;;;;;5486811;26;20471;-64
2024/04/18 12:55:04;;;;;;;1.00;0.90;;;15.40;85.30;;;;;;5482454;26;20278;-63
2024/04/18 12:57:32;;;;;;;4.13;0.87;;;15.40;87.60;;;;;;5487016;26;20513;-64
2024/04/18 13:00:00;;;;;;;0.93;0.83;;;15.60;86.20;;;;;;5488359;26;20794;-63